Time;durP1;ratioP1;P1;durP2;ratioP2;P2;SDS_P1;SDS_P2;PMS_P1;PMS_P2;Temp;Humidity;BMP_temperature;BMP_pressure;BME280_temperature;BME280_humidity;BME280_pressure;Samples;Min_cycle;Max_cycle;Signal;HPM_P1;HPM_P2
2023/03/05 00:01:21;;;;;;;5.97;2.30;;;3.70;99.90;;;;;;5027236;28;20045;-34
2023/03/05 00:03:47;;;;;;;7.32;2.08;;;3.60;99.90;;;;;;5020606;28;20390;-34
2023/03/05 00:06:13;;;;;;;9.20;2.38;;;3.60;99.90;;;;;;5033818;28;20070;-34
2023/03/05 00:08:39;;;;;;;8.07;2.10;;;3.60;99.90;;;;;;5034282;28;20486;-34
2023/03/05 00:11:08;;;;;;;7.45;2.03;;;3.70;99.90;;;;;;5049855;28;20072;-34
2023/03/05 00:13:34;;;;;;;6.03;1.83;;;3.60;99.90;;;;;;5049232;28;20041;-35
2023/03/05 00:16:05;;;;;;;6.00;2.08;;;3.60;99.90;;;;;;5010863;28;20049;-34
2023/03/05 00:18:32;;;;;;;7.82;2.55;;;3.70;99.90;;;;;;5021750;28;20478;-35
2023/03/05 00:20:57;;;;;;;4.70;1.88;;;3.60;99.90;;;;;;5037687;28;20033;-34
2023/03/05 00:23:23;;;;;;;9.07;2.13;;;3.60;99.90;;;;;;5039393;28;20037;-34
2023/03/05 00:25:49;;;;;;;7.60;1.88;;;3.60;99.90;;;;;;5022663;28;20041;-34
2023/03/05 00:28:14;;;;;;;8.85;2.50;;;3.60;99.90;;;;;;5029269;28;20038;-34
2023/03/05 00:30:40;;;;;;;5.68;2.35;;;3.60;99.90;;;;;;5024931;28;20410;-35
2023/03/05 00:33:07;;;;;;;10.43;2.40;;;3.60;99.90;;;;;;5029540;28;20047;-35
2023/03/05 00:35:41;;;;;;;7.28;2.15;;;3.70;99.90;;;;;;5024002;28;20684;-35
2023/03/05 00:38:07;;;;;;;4.00;1.67;;;3.70;99.90;;;;;;5048441;28;20051;-35
2023/03/05 00:40:40;;;;;;;6.43;1.90;;;3.60;99.90;;;;;;5023861;28;20037;-32
2023/03/05 00:43:06;;;;;;;7.72;2.03;;;3.70;99.90;;;;;;5031747;28;20398;-33
2023/03/05 00:45:32;;;;;;;10.85;2.63;;;3.70;99.90;;;;;;5029102;28;20479;-34
2023/03/05 00:47:58;;;;;;;8.77;2.08;;;3.60;99.90;;;;;;5029586;28;20041;-34
2023/03/05 00:50:24;;;;;;;8.02;2.38;;;3.70;99.90;;;;;;5050556;28;20132;-34
2023/03/05 00:52:50;;;;;;;9.52;2.10;;;3.70;99.90;;;;;;5026618;28;20116;-34
2023/03/05 00:55:16;;;;;;;8.90;2.20;;;3.70;99.90;;;;;;5016577;28;20037;-34
2023/03/05 00:57:42;;;;;;;4.97;2.08;;;3.70;99.90;;;;;;5030440;28;20052;-35
2023/03/05 01:00:08;;;;;;;4.72;1.98;;;3.70;99.90;;;;;;5019024;28;20057;-34
2023/03/05 01:02:34;;;;;;;7.05;2.10;;;3.70;99.90;;;;;;5011137;28;20096;-34
2023/03/05 01:04:59;;;;;;;3.17;1.70;;;3.70;99.90;;;;;;5025041;28;20425;-35
2023/03/05 01:07:25;;;;;;;4.55;1.77;;;3.70;99.90;;;;;;5016927;28;20048;-35
2023/03/05 01:09:51;;;;;;;4.57;1.38;;;3.70;99.90;;;;;;5014218;28;20131;-35
2023/03/05 01:12:16;;;;;;;3.13;1.45;;;3.60;99.90;;;;;;5036185;28;20499;-35
2023/03/05 01:14:42;;;;;;;7.10;1.98;;;3.70;99.90;;;;;;5030713;28;20087;-35
2023/03/05 01:17:08;;;;;;;6.95;1.85;;;3.70;99.90;;;;;;5034366;28;20037;-32
2023/03/05 01:19:33;;;;;;;8.32;1.90;;;3.60;99.90;;;;;;5020303;28;20449;-34
2023/03/05 01:21:59;;;;;;;5.65;1.52;;;3.60;99.90;;;;;;5021936;28;20046;-35
2023/03/05 01:24:25;;;;;;;4.15;1.60;;;3.50;99.90;;;;;;5040107;28;20033;-34
2023/03/05 01:26:50;;;;;;;5.90;1.80;;;3.50;99.90;;;;;;5038842;28;20076;-35
2023/03/05 01:29:17;;;;;;;6.63;2.08;;;3.50;99.90;;;;;;5030760;28;20038;-33
2023/03/05 01:31:42;;;;;;;4.47;1.65;;;3.50;99.90;;;;;;5015553;28;20478;-34
2023/03/05 01:34:08;;;;;;;3.35;1.60;;;3.50;99.90;;;;;;5010408;28;20041;-35
2023/03/05 01:36:33;;;;;;;7.47;2.15;;;3.50;99.90;;;;;;5028526;28;20302;-34
2023/03/05 01:39:00;;;;;;;8.10;2.22;;;3.50;99.90;;;;;;5025144;28;20052;-33
2023/03/05 01:41:25;;;;;;;8.43;1.70;;;3.50;99.90;;;;;;5032734;28;20047;-34
2023/03/05 01:43:54;;;;;;;7.68;1.77;;;3.50;99.90;;;;;;5026925;28;20033;-35
2023/03/05 01:46:36;;;;;;;4.68;1.67;;;3.50;99.90;;;;;;5028762;28;20072;-35
2023/03/05 01:49:10;;;;;;;4.38;1.60;;;3.50;99.90;;;;;;5023460;28;20387;-34
2023/03/05 01:51:42;;;;;;;7.15;1.90;;;3.40;99.90;;;;;;5028158;28;20514;-35
2023/03/05 01:54:10;;;;;;;6.72;2.08;;;3.50;99.90;;;;;;5023193;28;20044;-35
2023/03/05 01:56:38;;;;;;;8.50;2.00;;;3.40;99.90;;;;;;5025773;28;20041;-34
2023/03/05 01:59:05;;;;;;;7.20;2.33;;;3.30;99.90;;;;;;5013536;28;20463;-35
2023/03/05 02:01:36;;;;;;;5.32;1.90;;;3.30;99.90;;;;;;5019513;28;20046;-34
2023/03/05 02:04:02;;;;;;;7.07;1.95;;;3.20;99.90;;;;;;5034796;28;20043;-34
2023/03/05 02:06:29;;;;;;;7.93;2.15;;;3.20;99.90;;;;;;5037334;28;20112;-35
2023/03/05 02:08:55;;;;;;;4.82;2.08;;;3.20;99.90;;;;;;5036262;28;20112;-34
2023/03/05 02:11:20;;;;;;;7.65;2.28;;;3.20;99.90;;;;;;5045330;28;20043;-35
2023/03/05 02:13:46;;;;;;;7.80;2.28;;;3.10;99.90;;;;;;5026884;28;20112;-35
2023/03/05 02:16:12;;;;;;;5.72;2.17;;;3.10;99.90;;;;;;5047203;28;20432;-35
2023/03/05 02:18:37;;;;;;;8.55;2.40;;;3.10;99.90;;;;;;5019424;28;20053;-32
2023/03/05 02:21:08;;;;;;;4.88;1.98;;;3.10;99.90;;;;;;5023485;28;20037;-34
2023/03/05 02:23:35;;;;;;;9.90;2.85;;;3.10;99.90;;;;;;5031768;28;20371;-32
2023/03/05 02:26:03;;;;;;;8.60;2.15;;;3.00;99.90;;;;;;5033667;28;20042;-35
2023/03/05 02:28:39;;;;;;;4.82;2.10;;;3.00;99.90;;;;;;5032161;28;20045;-34
2023/03/05 02:31:24;;;;;;;9.30;3.08;;;3.00;99.90;;;;;;5012408;28;20026;-34
2023/03/05 02:33:51;;;;;;;5.97;2.03;;;3.00;99.90;;;;;;5020040;28;20048;-32
2023/03/05 02:36:17;;;;;;;4.75;2.00;;;3.00;99.90;;;;;;5020870;28;20091;-34
2023/03/05 02:38:44;;;;;;;5.07;2.10;;;3.00;99.90;;;;;;5020460;28;20038;-35
2023/03/05 02:41:10;;;;;;;6.22;2.25;;;3.00;99.90;;;;;;5021259;28;20064;-34
2023/03/05 02:43:36;;;;;;;6.68;2.22;;;3.00;99.90;;;;;;5019496;28;20034;-34
2023/03/05 02:46:02;;;;;;;9.05;2.50;;;2.90;99.90;;;;;;5026509;28;20566;-35
2023/03/05 02:48:27;;;;;;;7.13;2.20;;;2.90;99.90;;;;;;5017002;28;20344;-34
2023/03/05 02:50:54;;;;;;;4.43;1.98;;;2.90;99.90;;;;;;5028120;28;20124;-34
2023/03/05 02:53:21;;;;;;;5.05;2.20;;;2.90;99.90;;;;;;5041975;28;20671;-35
2023/03/05 02:55:48;;;;;;;7.57;2.30;;;2.90;99.90;;;;;;5019313;28;20044;-34
2023/03/05 02:58:13;;;;;;;7.93;2.30;;;2.90;99.90;;;;;;5018597;28;20034;-34
2023/03/05 03:00:39;;;;;;;7.57;2.17;;;2.90;99.90;;;;;;5027699;28;20041;-34
2023/03/05 03:03:05;;;;;;;5.57;2.00;;;2.80;99.90;;;;;;5022561;28;20125;-33
2023/03/05 03:05:31;;;;;;;6.53;2.28;;;2.80;99.90;;;;;;5013506;28;20121;-34
2023/03/05 03:07:56;;;;;;;4.55;2.25;;;2.80;99.90;;;;;;5015408;28;20037;-32
2023/03/05 03:10:22;;;;;;;7.03;2.30;;;2.80;99.90;;;;;;5024251;28;20033;-34
2023/03/05 03:12:48;;;;;;;7.20;2.28;;;2.80;99.90;;;;;;5028247;28;20073;-34
2023/03/05 03:15:15;;;;;;;7.18;2.60;;;2.90;99.90;;;;;;5043444;28;20041;-34
2023/03/05 03:17:41;;;;;;;5.13;2.00;;;2.80;99.90;;;;;;5012916;28;20037;-35
2023/03/05 03:20:10;;;;;;;5.22;2.08;;;2.90;99.90;;;;;;5023679;28;20682;-34
2023/03/05 03:22:36;;;;;;;6.13;2.20;;;2.90;99.90;;;;;;5021240;28;20116;-33
2023/03/05 03:27:30;;;;;;;5.45;2.58;;;2.80;99.90;;;;;;5008926;28;20046;-33
2023/03/05 03:29:55;;;;;;;5.43;2.20;;;2.80;99.90;;;;;;5006387;28;20041;-34
2023/03/05 03:32:21;;;;;;;9.75;2.33;;;2.90;99.90;;;;;;5005969;28;20076;-33
2023/03/05 03:34:47;;;;;;;6.38;2.30;;;2.90;99.90;;;;;;5006941;28;20124;-34
2023/03/05 03:37:13;;;;;;;5.40;2.42;;;2.90;99.90;;;;;;5009911;28;20034;-33
2023/03/05 03:39:39;;;;;;;6.63;2.20;;;2.90;99.90;;;;;;5009851;28;20116;-33
2023/03/05 03:42:04;;;;;;;6.22;1.98;;;2.80;99.90;;;;;;5005582;28;20124;-33
2023/03/05 03:44:31;;;;;;;6.00;2.33;;;2.90;99.90;;;;;;5010076;28;20129;-33
2023/03/05 03:46:56;;;;;;;5.25;2.13;;;2.90;99.90;;;;;;5005733;28;20084;-34
2023/03/05 03:49:25;;;;;;;5.82;2.00;;;2.90;99.90;;;;;;5004809;28;20434;-31
2023/03/05 03:51:56;;;;;;;4.25;1.60;;;3.00;99.90;;;;;;4997401;28;20034;-33
2023/03/05 03:54:23;;;;;;;8.68;2.08;;;3.00;99.90;;;;;;5006502;28;20046;-38
2023/03/05 03:56:49;;;;;;;4.68;1.92;;;3.00;99.90;;;;;;4995043;28;20040;-35
2023/03/05 03:59:15;;;;;;;4.32;1.80;;;3.10;99.90;;;;;;4999001;28;20077;-35
2023/03/05 04:01:41;;;;;;;3.42;1.77;;;3.10;99.90;;;;;;5006653;28;20073;-36
2023/03/05 04:04:06;;;;;;;5.50;1.83;;;3.00;99.90;;;;;;4993395;28;20576;-36
2023/03/05 04:06:33;;;;;;;5.47;1.77;;;3.00;99.90;;;;;;5010111;28;20120;-39
2023/03/05 04:08:59;;;;;;;5.30;2.13;;;3.00;99.90;;;;;;5010177;28;20439;-37
2023/03/05 04:11:24;;;;;;;3.50;1.70;;;3.00;99.90;;;;;;5009936;28;20057;-38
2023/03/05 04:13:50;;;;;;;4.85;1.50;;;3.00;99.90;;;;;;5006297;28;20403;-37
2023/03/05 04:16:18;;;;;;;5.18;1.85;;;3.00;99.90;;;;;;5008898;28;20224;-36
2023/03/05 04:18:43;;;;;;;2.75;1.60;;;3.00;99.90;;;;;;5008132;28;20046;-36
2023/03/05 04:21:09;;;;;;;6.20;2.00;;;3.00;99.90;;;;;;5005668;28;20053;-36
2023/03/05 04:23:36;;;;;;;3.03;1.60;;;3.00;99.90;;;;;;5002785;28;20473;-36
2023/03/05 04:26:01;;;;;;;4.65;1.35;;;3.00;99.90;;;;;;5008251;28;20034;-36
2023/03/05 04:28:27;;;;;;;5.68;1.80;;;3.00;99.90;;;;;;5005823;28;20398;-37
2023/03/05 04:30:53;;;;;;;6.93;1.38;;;3.00;99.90;;;;;;5009829;28;20041;-36
2023/03/05 04:33:19;;;;;;;2.67;1.25;;;3.10;99.90;;;;;;5003376;28;20089;-36
2023/03/05 04:35:44;;;;;;;4.43;1.25;;;3.10;99.90;;;;;;5003628;28;20042;-38
2023/03/05 04:38:10;;;;;;;5.63;1.75;;;3.00;99.90;;;;;;5001816;28;20640;-36
2023/03/05 04:40:36;;;;;;;3.60;1.35;;;3.10;99.90;;;;;;5009105;28;20042;-35
2023/03/05 04:43:03;;;;;;;5.03;1.30;;;3.00;99.90;;;;;;5003743;28;20560;-35
2023/03/05 04:45:29;;;;;;;2.95;1.20;;;3.10;99.90;;;;;;5003395;28;20183;-35
2023/03/05 04:47:54;;;;;;;6.28;1.27;;;3.00;99.90;;;;;;5003850;28;20116;-36
2023/03/05 04:50:20;;;;;;;3.60;1.17;;;3.00;99.90;;;;;;5007085;28;20030;-36
2023/03/05 04:52:46;;;;;;;1.45;0.80;;;3.00;99.90;;;;;;5000077;28;20105;-38
2023/03/05 04:55:13;;;;;;;4.68;1.17;;;3.00;99.90;;;;;;4994673;28;20045;-33
2023/03/05 04:57:40;;;;;;;3.53;1.15;;;3.00;99.90;;;;;;5007764;28;20064;-33
2023/03/05 05:00:13;;;;;;;1.40;1.00;;;3.00;99.90;;;;;;5004801;28;20117;-33
2023/03/05 05:02:43;;;;;;;2.88;0.90;;;3.00;99.90;;;;;;4999869;28;20081;-33
2023/03/05 05:05:12;;;;;;;2.80;1.15;;;3.00;99.90;;;;;;5008560;28;20069;-33
2023/03/05 05:07:38;;;;;;;2.10;0.82;;;3.00;99.90;;;;;;5006484;28;20052;-33
2023/03/05 05:10:06;;;;;;;2.47;0.88;;;3.00;99.90;;;;;;5008317;28;20462;-33
2023/03/05 05:12:32;;;;;;;1.33;0.90;;;2.90;99.90;;;;;;5005807;28;20034;-33
2023/03/05 05:14:58;;;;;;;4.70;1.30;;;3.00;99.90;;;;;;5004728;28;20039;-33
2023/03/05 05:17:25;;;;;;;4.35;1.42;;;2.90;99.90;;;;;;5007995;28;20050;-33
2023/03/05 05:19:50;;;;;;;2.20;1.23;;;2.90;99.90;;;;;;5006750;28;20042;-33
2023/03/05 05:22:16;;;;;;;5.22;1.15;;;3.00;99.90;;;;;;5005562;28;20049;-33
2023/03/05 05:24:42;;;;;;;3.42;1.23;;;2.90;99.90;;;;;;5007885;28;20125;-33
2023/03/05 05:27:07;;;;;;;5.00;1.30;;;2.90;99.90;;;;;;5005541;28;20411;-33
2023/03/05 05:29:33;;;;;;;2.17;1.13;;;2.90;99.90;;;;;;4998222;28;20037;-33
2023/03/05 05:31:59;;;;;;;1.88;1.20;;;2.90;99.90;;;;;;5006139;28;20038;-33
2023/03/05 05:34:25;;;;;;;3.42;1.30;;;3.00;99.90;;;;;;5005910;28;20046;-33
2023/03/05 05:36:51;;;;;;;4.57;1.10;;;3.00;99.90;;;;;;5004373;28;20112;-33
2023/03/05 05:39:17;;;;;;;3.47;1.38;;;3.00;99.90;;;;;;4997362;28;20301;-33
2023/03/05 05:41:43;;;;;;;4.28;1.45;;;3.00;99.90;;;;;;5006018;28;20032;-33
2023/03/05 05:44:09;;;;;;;4.97;1.33;;;3.00;99.90;;;;;;5002992;28;20125;-33
2023/03/05 05:46:34;;;;;;;4.22;1.30;;;3.00;99.90;;;;;;4999097;28;20120;-33
2023/03/05 05:49:00;;;;;;;2.10;1.20;;;3.00;99.90;;;;;;5001281;28;20036;-33
2023/03/05 05:51:26;;;;;;;2.83;1.30;;;2.90;99.90;;;;;;4996755;28;20046;-33
2023/03/05 05:53:52;;;;;;;4.80;1.55;;;2.90;99.90;;;;;;5003090;28;20045;-33
2023/03/05 05:56:18;;;;;;;2.47;1.30;;;2.90;99.90;;;;;;5001480;28;20045;-33
2023/03/05 05:58:46;;;;;;;5.03;1.45;;;2.90;99.90;;;;;;5005207;28;20563;-33
2023/03/05 06:01:21;;;;;;;4.40;1.60;;;3.00;99.90;;;;;;5004191;28;20034;-33
2023/03/05 06:03:47;;;;;;;3.08;1.55;;;3.00;99.90;;;;;;5005203;28;20057;-33
2023/03/05 06:06:16;;;;;;;3.40;1.58;;;2.90;99.90;;;;;;5008283;28;20038;-33
2023/03/05 06:08:42;;;;;;;2.20;1.25;;;2.90;99.90;;;;;;5007765;28;20041;-33
2023/03/05 06:11:08;;;;;;;3.80;1.38;;;2.90;99.90;;;;;;5006881;28;20384;-33
2023/03/05 06:13:34;;;;;;;5.25;1.40;;;2.90;99.90;;;;;;5006849;28;20046;-33
2023/03/05 06:16:03;;;;;;;3.70;1.50;;;2.90;99.90;;;;;;5007502;28;20041;-33
2023/03/05 06:18:29;;;;;;;3.05;1.38;;;2.90;99.90;;;;;;5008373;28;20410;-33
2023/03/05 06:21:00;;;;;;;3.83;1.30;;;2.90;99.90;;;;;;5006394;28;20045;-33
2023/03/05 06:23:27;;;;;;;2.25;1.23;;;2.80;99.90;;;;;;5007636;28;20399;-33
2023/03/05 06:25:53;;;;;;;2.30;1.05;;;2.80;99.90;;;;;;5003798;28;20483;-33
2023/03/05 06:28:19;;;;;;;3.72;1.63;;;2.80;99.90;;;;;;5004279;28;20033;-33
2023/03/05 06:30:45;;;;;;;4.50;1.70;;;2.80;99.90;;;;;;4986879;28;20042;-33
2023/03/05 06:33:11;;;;;;;4.38;1.13;;;2.80;99.90;;;;;;5005483;28;20395;-33
2023/03/05 06:35:39;;;;;;;2.60;1.17;;;2.80;99.90;;;;;;5007436;28;20499;-33
2023/03/05 06:38:05;;;;;;;3.42;1.35;;;2.80;99.90;;;;;;5006107;28;20116;-33
2023/03/05 06:40:31;;;;;;;2.33;1.27;;;2.80;99.90;;;;;;5004008;28;20048;-33
2023/03/05 06:42:57;;;;;;;3.63;1.52;;;2.90;99.90;;;;;;5000214;28;20034;-33
2023/03/05 06:45:22;;;;;;;2.53;1.45;;;2.80;99.90;;;;;;4999584;28;20042;-33
2023/03/05 06:47:48;;;;;;;3.03;1.55;;;2.90;99.90;;;;;;5003220;28;20030;-33
2023/03/05 06:50:14;;;;;;;4.65;1.30;;;2.90;99.90;;;;;;5005342;28;20121;-33
2023/03/05 06:52:39;;;;;;;4.82;1.33;;;3.00;99.90;;;;;;5007289;28;20046;-33
2023/03/05 06:55:06;;;;;;;4.10;1.40;;;3.00;99.90;;;;;;5008987;28;20070;-33
2023/03/05 06:57:32;;;;;;;3.75;1.55;;;3.00;99.90;;;;;;5007873;28;20046;-33
2023/03/05 06:59:58;;;;;;;5.05;1.77;;;3.10;99.90;;;;;;5005356;28;20040;-33
2023/03/05 07:02:24;;;;;;;5.15;1.60;;;3.10;99.90;;;;;;5007086;28;20045;-33
2023/03/05 07:04:49;;;;;;;3.00;1.50;;;3.10;99.90;;;;;;5005317;28;20072;-33
2023/03/05 07:07:15;;;;;;;4.38;1.52;;;3.10;99.90;;;;;;5005638;28;20037;-33
2023/03/05 07:09:43;;;;;;;3.00;1.30;;;3.20;99.90;;;;;;5006957;28;20479;-33
2023/03/05 07:12:10;;;;;;;2.47;1.35;;;3.20;99.90;;;;;;5007491;28;20037;-33
2023/03/05 07:14:37;;;;;;;4.45;1.30;;;3.30;99.90;;;;;;4992771;28;20092;-35
2023/03/05 07:17:05;;;;;;;4.60;1.80;;;3.30;99.90;;;;;;5006304;28;20076;-35
2023/03/05 07:19:31;;;;;;;3.58;1.50;;;3.30;99.90;;;;;;5003129;28;20108;-33
2023/03/05 07:21:57;;;;;;;3.78;1.90;;;3.30;99.90;;;;;;5005820;28;20071;-33
2023/03/05 07:24:28;;;;;;;3.17;2.05;;;3.40;99.90;;;;;;5004991;28;20060;-33
2023/03/05 07:26:58;;;;;;;5.22;2.15;;;3.30;99.90;;;;;;5004731;28;20037;-33
2023/03/05 07:29:25;;;;;;;2.22;1.40;;;3.30;99.90;;;;;;5006824;28;20034;-33
2023/03/05 07:31:51;;;;;;;6.03;1.75;;;3.40;99.90;;;;;;5008782;28;20092;-32
2023/03/05 07:34:16;;;;;;;4.07;1.58;;;3.30;99.90;;;;;;5008632;28;20042;-32
2023/03/05 07:36:42;;;;;;;6.05;1.60;;;3.40;99.90;;;;;;5008280;28;20084;-32
2023/03/05 07:39:10;;;;;;;4.40;1.77;;;3.40;99.90;;;;;;5010083;28;20034;-32
2023/03/05 07:41:37;;;;;;;3.50;1.60;;;3.50;99.90;;;;;;5005088;28;20034;-32
2023/03/05 07:44:02;;;;;;;5.75;1.63;;;3.50;99.90;;;;;;5007165;28;20052;-32
2023/03/05 07:46:30;;;;;;;3.88;1.40;;;3.60;99.90;;;;;;5011875;28;20542;-32
2023/03/05 07:48:57;;;;;;;6.93;1.70;;;3.70;99.90;;;;;;5008398;28;20265;-32
2023/03/05 07:51:24;;;;;;;4.65;1.50;;;3.80;99.90;;;;;;5009858;28;20084;-32
2023/03/05 07:53:51;;;;;;;5.38;2.22;;;3.80;99.90;;;;;;5001593;28;20034;-32
2023/03/05 07:56:31;;;;;;;4.38;1.48;;;3.90;99.90;;;;;;5000855;28;20073;-32
2023/03/05 07:59:06;;;;;;;2.05;1.33;;;3.90;99.90;;;;;;5004591;28;20120;-32
2023/03/05 08:01:33;;;;;;;5.78;1.30;;;4.00;99.90;;;;;;5003035;28;20052;-32
2023/03/05 08:03:59;;;;;;;5.25;1.40;;;4.10;99.90;;;;;;5006980;28;20091;-32
2023/03/05 08:06:24;;;;;;;3.97;1.30;;;4.10;99.90;;;;;;5005095;28;20511;-32
2023/03/05 08:08:50;;;;;;;3.53;1.50;;;4.20;99.90;;;;;;5006361;28;20180;-32
2023/03/05 08:11:16;;;;;;;5.32;1.50;;;4.20;99.90;;;;;;5011510;28;20069;-33
2023/03/05 08:13:43;;;;;;;3.67;1.30;;;4.20;99.90;;;;;;5008661;28;20038;-32
2023/03/05 08:16:12;;;;;;;5.53;1.40;;;4.40;99.90;;;;;;5009675;28;20541;-34
2023/03/05 08:18:38;;;;;;;6.40;1.83;;;4.60;99.90;;;;;;5011836;28;20125;-34
2023/03/05 08:21:04;;;;;;;4.50;1.80;;;4.80;99.90;;;;;;5008554;28;20129;-34
2023/03/05 08:23:30;;;;;;;4.50;1.42;;;5.10;99.90;;;;;;5006391;28;20505;-34
2023/03/05 08:25:56;;;;;;;7.55;1.75;;;5.30;99.90;;;;;;4993639;28;20127;-34
2023/03/05 08:28:22;;;;;;;7.38;1.50;;;5.50;99.90;;;;;;5007546;28;20030;-34
2023/03/05 08:30:48;;;;;;;3.85;1.15;;;5.60;99.90;;;;;;5006908;28;20458;-35
2023/03/05 08:33:16;;;;;;;5.28;1.40;;;5.80;99.90;;;;;;4998755;28;20168;-35
2023/03/05 08:35:42;;;;;;;6.55;1.20;;;5.90;99.90;;;;;;5001051;28;20053;-34
2023/03/05 08:38:07;;;;;;;3.97;1.38;;;6.10;99.90;;;;;;5001568;28;20034;-34
2023/03/05 08:40:33;;;;;;;4.03;1.60;;;6.20;99.90;;;;;;5008129;28;20121;-34
2023/03/05 08:42:59;;;;;;;4.38;1.35;;;6.30;99.90;;;;;;4990744;28;20038;-34
2023/03/05 08:45:26;;;;;;;3.75;1.27;;;6.50;99.90;;;;;;5000100;28;20566;-34
2023/03/05 08:47:53;;;;;;;2.60;1.42;;;6.50;99.90;;;;;;5007087;28;20117;-35
2023/03/05 08:50:21;;;;;;;2.78;1.23;;;6.70;99.90;;;;;;5006420;28;20034;-35
2023/03/05 08:52:46;;;;;;;3.60;1.33;;;6.80;99.90;;;;;;5009723;28;20046;-34
2023/03/05 08:55:12;;;;;;;5.88;1.60;;;6.80;99.90;;;;;;5004343;28;20047;-35
2023/03/05 08:57:38;;;;;;;4.70;1.20;;;7.00;99.90;;;;;;4999145;28;20041;-34
2023/03/05 09:00:04;;;;;;;4.15;1.10;;;7.20;99.90;;;;;;5003564;28;20046;-35
2023/03/05 09:02:30;;;;;;;3.95;1.30;;;7.20;99.90;;;;;;5005933;28;20045;-32
2023/03/05 09:04:55;;;;;;;3.40;1.08;;;7.30;99.90;;;;;;5008033;28;20101;-33
2023/03/05 09:07:21;;;;;;;2.47;0.98;;;7.60;99.90;;;;;;5008836;28;20041;-36
2023/03/05 09:09:47;;;;;;;2.63;1.10;;;7.90;99.90;;;;;;5003343;28;20057;-33
2023/03/05 09:12:14;;;;;;;4.07;1.42;;;8.00;99.90;;;;;;5002371;28;20117;-35
2023/03/05 09:14:40;;;;;;;3.30;1.27;;;8.00;99.90;;;;;;4999629;28;20046;-34
2023/03/05 09:17:07;;;;;;;5.60;1.40;;;8.20;99.90;;;;;;4999921;28;20045;-35
2023/03/05 09:19:32;;;;;;;3.28;0.95;;;8.50;99.90;;;;;;5000178;28;20064;-35
2023/03/05 09:21:58;;;;;;;4.18;1.48;;;8.70;99.90;;;;;;5010529;28;20030;-34
2023/03/05 09:24:24;;;;;;;4.55;1.30;;;9.00;99.90;;;;;;5004172;28;20620;-34
2023/03/05 09:26:50;;;;;;;4.47;1.23;;;9.30;99.90;;;;;;5028706;22;20114;-87
2023/03/05 09:29:15;;;;;;;6.00;1.40;;;9.20;99.90;;;;;;5008656;28;20469;-87
2023/03/05 09:31:42;;;;;;;4.15;1.40;;;9.30;99.90;;;;;;5019753;28;20123;-86
2023/03/05 09:34:10;;;;;;;6.15;1.20;;;9.60;99.90;;;;;;5005082;28;20485;-87
2023/03/05 09:36:36;;;;;;;3.72;1.65;;;9.40;99.90;;;;;;5003115;28;20042;-87
2023/03/05 09:39:03;;;;;;;4.82;1.40;;;9.10;99.90;;;;;;5006609;28;20484;-86
2023/03/05 09:41:53;;;;;;;5.75;1.50;;;9.20;99.90;;;;;;5011405;28;20065;-87
2023/03/05 09:45:04;;;;;;;4.43;0.98;;;9.40;99.90;;;;;;4997970;28;20042;-87
2023/03/05 10:10:03;;;;;;;3.33;0.93;;;11.00;99.90;;;;;;4933806;29;20815;-84
2023/03/05 10:27:13;;;;;;;4.45;0.98;;;9.60;99.90;;;;;;5045523;22;20046;-37
2023/03/05 10:30:16;;;;;;;4.88;1.02;;;9.70;99.90;;;;;;5025745;28;20037;-39
2023/03/05 10:33:03;;;;;;;2.67;1.08;;;9.80;99.90;;;;;;5012004;28;20049;-38
2023/03/05 10:35:53;;;;;;;2.75;0.75;;;9.80;99.90;;;;;;4996053;28;20521;-40
2023/03/05 10:38:35;;;;;;;3.42;0.70;;;9.80;99.90;;;;;;5008247;28;20112;-37
2023/03/05 10:41:11;;;;;;;4.07;0.88;;;9.70;99.90;;;;;;4999438;28;20034;-37
2023/03/05 10:43:49;;;;;;;4.22;1.20;;;9.90;99.90;;;;;;4998266;28;20133;-37
2023/03/05 10:46:20;;;;;;;2.60;0.73;;;9.70;99.90;;;;;;5015048;28;20038;-37
2023/03/05 10:49:31;;;;;;;4.03;1.00;;;9.40;99.90;;;;;;5137744;22;20053;-90
2023/03/05 10:52:21;;;;;;;3.13;0.93;;;9.60;99.90;;;;;;5042933;28;20728;-91
2023/03/05 10:54:49;;;;;;;3.90;1.23;;;9.80;99.90;;;;;;4970665;28;20049;-86
2023/03/05 10:57:25;;;;;;;3.25;1.27;;;9.80;99.90;;;;;;5038061;28;20437;-85
2023/03/05 11:00:00;;;;;;;5.82;1.10;;;9.50;99.90;;;;;;5012627;28;20029;-85
2023/03/05 11:02:26;;;;;;;6.28;1.25;;;9.60;99.90;;;;;;5025310;28;20038;-85
2023/03/05 11:04:53;;;;;;;5.22;1.30;;;9.80;99.90;;;;;;5010216;28;20030;-86
2023/03/05 11:07:35;;;;;;;4.80;0.90;;;10.30;99.90;;;;;;5006824;28;20475;-89
2023/03/05 11:10:01;;;;;;;3.97;0.85;;;10.60;99.90;;;;;;5024448;28;20038;-85
2023/03/05 11:12:34;;;;;;;2.97;0.90;;;10.50;99.90;;;;;;5025078;28;20041;-82
2023/03/05 11:15:08;;;;;;;5.20;1.48;;;10.30;99.90;;;;;;5011557;28;20579;-82
2023/03/05 11:17:43;;;;;;;4.88;0.90;;;10.60;99.90;;;;;;5016154;28;20046;-83
2023/03/05 11:20:38;;;;;;;4.85;0.70;;;10.50;99.90;;;;;;5022486;28;20038;-86
2023/03/05 11:23:40;;;;;;;3.38;0.80;;;10.60;99.90;;;;;;5006964;28;20082;-88
2023/03/05 11:26:12;;;;;;;2.90;0.90;;;11.00;99.90;;;;;;4966102;28;20054;-86
2023/03/05 11:28:57;;;;;;;4.10;1.00;;;11.30;99.90;;;;;;5011537;28;20037;-84
2023/03/05 11:31:48;;;;;;;2.88;0.90;;;11.00;99.90;;;;;;5024992;28;20049;-83
2023/03/05 11:34:47;;;;;;;4.90;1.65;;;10.40;99.90;;;;;;5031011;28;20634;-86
2023/03/05 11:38:05;;;;;;;;;;;;;;;;;;;;;
2023/03/05 11:45:27;;;;;;;;;;;;;;;;;;;;;
2023/03/05 11:48:44;;;;;;;3.60;1.10;;;8.10;99.90;;;;;;5033644;28;20045;-85
2023/03/05 11:52:29;;;;;;;;;;;;;;;;;;;;;
2023/03/05 11:55:05;;;;;;;2.97;0.95;;;7.70;99.90;;;;;;4968815;28;20078;-84
2023/03/05 11:58:15;;;;;;;2.15;0.80;;;7.50;99.90;;;;;;5032165;23;20060;-42
2023/03/05 12:00:44;;;;;;;1.90;0.57;;;7.30;99.90;;;;;;4999938;28;20058;-40
2023/03/05 12:03:17;;;;;;;0.95;0.70;;;7.10;99.90;;;;;;5006917;28;20038;-36
2023/03/05 12:06:13;;;;;;;1.90;0.73;;;7.00;99.90;;;;;;5001106;22;20448;-36
2023/03/05 12:08:43;;;;;;;3.05;0.80;;;7.00;99.90;;;;;;4999874;28;20384;-34
2023/03/05 12:11:18;;;;;;;3.75;0.88;;;6.90;99.90;;;;;;5005392;28;20046;-35
2023/03/05 12:13:50;;;;;;;2.70;0.90;;;7.00;99.90;;;;;;5007720;28;20038;-35
2023/03/05 12:16:30;;;;;;;1.40;0.70;;;7.20;99.90;;;;;;5004130;28;20033;-35
2023/03/05 12:19:14;;;;;;;1.55;0.73;;;7.70;99.90;;;;;;5008468;28;20065;-35
2023/03/05 12:21:42;;;;;;;3.05;0.90;;;8.20;99.90;;;;;;5007193;28;20391;-35
2023/03/05 12:24:23;;;;;;;4.93;0.95;;;8.60;99.90;;;;;;5007588;28;20045;-36
2023/03/05 12:27:03;;;;;;;4.45;1.10;;;9.20;99.90;;;;;;5009840;28;20037;-34
2023/03/05 12:29:32;;;;;;;2.00;0.88;;;9.40;99.90;;;;;;5017654;28;20093;-36
2023/03/05 12:32:00;;;;;;;1.60;0.80;;;10.00;99.90;;;;;;5007116;28;20042;-34
2023/03/05 12:34:38;;;;;;;3.33;1.00;;;10.50;99.90;;;;;;5006337;28;20050;-34
2023/03/05 12:37:19;;;;;;;4.20;2.50;;;10.50;99.90;;;;;;5006400;28;20120;-34
2023/03/05 12:39:56;;;;;;;5.07;1.40;;;10.60;99.90;;;;;;5008270;28;20049;-35
2023/03/05 12:42:27;;;;;;;3.88;1.65;;;10.80;99.90;;;;;;5006946;28;20116;-34
2023/03/05 12:45:08;;;;;;;4.30;1.33;;;11.10;99.90;;;;;;5006687;28;20033;-34
2023/03/05 12:47:36;;;;;;;2.75;1.13;;;11.40;99.90;;;;;;5007729;28;20034;-35
2023/03/05 12:50:04;;;;;;;6.28;1.20;;;11.50;99.90;;;;;;5001291;28;20038;-35
2023/03/05 12:52:32;;;;;;;2.60;0.90;;;11.80;99.90;;;;;;4971627;28;20049;-34
2023/03/05 12:55:38;;;;;;;1.27;0.90;;;12.00;99.90;;;;;;4991609;28;20038;-36
2023/03/05 12:58:22;;;;;;;2.05;0.77;;;11.80;95.60;;;;;;4993526;28;20068;-35
2023/03/05 13:00:51;;;;;;;1.52;0.70;;;11.90;99.90;;;;;;5019969;28;20457;-36
2023/03/05 13:03:29;;;;;;;3.65;1.02;;;12.20;99.90;;;;;;5008495;28;20708;-35
2023/03/05 13:05:58;;;;;;;2.33;0.80;;;12.70;99.90;;;;;;4994066;28;20042;-34
2023/03/05 13:08:34;;;;;;;4.20;0.90;;;12.90;99.90;;;;;;4998386;28;20042;-35
2023/03/05 13:11:15;;;;;;;2.10;0.80;;;12.70;93.90;;;;;;5000273;28;20041;-35
2023/03/05 13:13:43;;;;;;;3.13;1.00;;;12.30;99.90;;;;;;5006976;28;20034;-35
2023/03/05 13:16:38;;;;;;;4.28;1.65;;;12.50;99.90;;;;;;5027036;28;20541;-35
2023/03/05 13:19:15;;;;;;;3.17;1.30;;;13.00;79.00;;;;;;5000093;28;20112;-36
2023/03/05 13:21:41;;;;;;;3.38;1.00;;;13.10;73.40;;;;;;5013317;28;20061;-35
2023/03/05 13:24:16;;;;;;;6.30;1.10;;;13.00;98.60;;;;;;5024702;28;20038;-35
2023/03/05 13:26:42;;;;;;;3.05;0.90;;;13.20;75.10;;;;;;5013315;28;20042;-35
2023/03/05 13:29:14;;;;;;;1.50;0.70;;;13.20;88.00;;;;;;4996042;28;20034;-35
2023/03/05 13:31:54;;;;;;;2.45;0.80;;;12.60;78.50;;;;;;5015866;28;20034;-35
2023/03/05 13:34:23;;;;;;;1.70;0.85;;;11.90;99.90;;;;;;5014725;28;20046;-34
2023/03/05 13:36:55;;;;;;;3.33;0.90;;;11.00;99.90;;;;;;5008186;28;20542;-35
2023/03/05 13:39:33;;;;;;;1.98;1.00;;;10.20;99.90;;;;;;5002031;28;20042;-35
2023/03/05 13:42:04;;;;;;;3.03;1.00;;;9.60;99.90;;;;;;5012479;28;20053;-35
2023/03/05 13:44:31;;;;;;;3.97;1.40;;;8.80;99.90;;;;;;5007936;28;20118;-34
2023/03/05 13:47:16;;;;;;;4.35;1.38;;;8.60;99.90;;;;;;4978987;22;1133370;-85
2023/03/05 13:49:43;;;;;;;6.00;1.50;;;8.20;99.90;;;;;;5010008;28;20073;-85
2023/03/05 13:52:09;;;;;;;5.85;1.88;;;8.00;99.90;;;;;;5024120;28;20033;-85
2023/03/05 13:54:35;;;;;;;2.42;1.20;;;8.10;99.90;;;;;;5016475;28;20042;-85
2023/03/05 13:57:04;;;;;;;2.53;1.23;;;8.20;99.90;;;;;;5020920;28;20056;-85